Portada
METAR-TAF:

METAR-TAF

Aeroports :

Gibraltar, Gibraltar

latitud: 36-09N, longitud: 005-21W, altitud: 5 m

Observació

L'informe es va fer fa 1 hora i 5 minuts, a les 16:50 UTC
Vent 19 kt del Oest/Sud-Oest amb ràfegues de 30 kt
Temperatura 17°C
Humitat 48%
Pressió 1006 hPa
Visibilitat 10 km o més
Escasses núvols a una alçada de 5000 ft

METAR: LXGB 231650Z 25019G30KT 9999 FEW050 17/06 Q1006 NOSIG

Hora: 19:55 (17:55 UTC)

Pronòstic

L'informe es va fer fa 1 hora i 26 minuts, a les 16:29 UTC
Pronòstic vàlid del 23 a les 18 UTC al 23 a les 22 UTC
Vent 15 kt del Oest amb ràfegues de 25 kt
Visibilitat 10 km o més
Escasses núvols a una alçada de 4500 ft
Evolucionant progressivament
l' 23 a les 20 UTC al 23 a les 22 UTC
Vent 12 kt del Oest

TAF: LXGB 231629Z 2318/2322 26015G25KT 9999 FEW045 BECMG 2320/2322 27012KT

Observacions i pronòstics meteorològics de més de 4000 aeroports (METAR i TAF).

Les estacions disponibles són els punts grocs i vermells al mapa.

Posi el ratolí al punt desitjat per veure el nom de l'estació.

Feu clic per veure les observacions i els pronòstics meteorològics.

Per canviar el mapa: feu clic els botons verds amb una creu de color negre per apropar; al botó verd amb un guió per allunyar la imatge; o en les fletxes verdes per a mapes adjacents.


METAR-TAF: